Time;durP1;ratioP1;P1;durP2;ratioP2;P2;SDS_P1;SDS_P2;PMS_P1;PMS_P2;Temp;Humidity;BMP_temperature;BMP_pressure;BME280_temperature;BME280_humidity;BME280_pressure;Samples;Min_cycle;Max_cycle;Signal;HPM_P1;HPM_P2
2021/09/02 00:01:45;;;;;;;9.73;7.33;;;;;;;10.21;100.00;101720.75;5025040;28;20215;-73
2021/09/02 00:04:14;;;;;;;13.53;8.03;;;;;;;10.18;100.00;101721.66;5027924;28;20258;-73
2021/09/02 00:06:40;;;;;;;10.07;7.47;;;;;;;10.07;100.00;101720.84;5027990;28;20219;-73
2021/09/02 00:09:06;;;;;;;11.20;7.60;;;;;;;10.05;100.00;101719.97;5026311;28;20325;-73
2021/09/02 00:11:33;;;;;;;11.53;7.10;;;;;;;10.09;100.00;101723.44;5028719;28;20295;-73
2021/09/02 00:13:59;;;;;;;11.10;7.97;;;;;;;10.14;100.00;101729.47;5027983;28;20208;-73
2021/09/02 00:16:26;;;;;;;12.23;8.13;;;;;;;10.26;100.00;101726.78;5026780;28;20588;-73
2021/09/02 00:18:52;;;;;;;12.53;7.70;;;;;;;10.21;100.00;101725.97;5019617;28;20203;-73
2021/09/02 00:21:20;;;;;;;10.83;7.97;;;;;;;10.23;100.00;101725.06;5023939;28;20691;-73
2021/09/02 00:23:47;;;;;;;10.00;7.43;;;;;;;10.14;100.00;101735.56;5024262;28;20208;-73
2021/09/02 00:26:13;;;;;;;9.97;7.00;;;;;;;10.21;100.00;101728.56;5028528;28;20212;-73
2021/09/02 00:28:40;;;;;;;10.93;7.83;;;;;;;10.09;100.00;101736.47;5027575;28;20227;-73
2021/09/02 00:31:06;;;;;;;10.73;7.77;;;;;;;10.05;100.00;101736.47;5028163;28;20206;-73
2021/09/02 00:33:33;;;;;;;11.67;7.97;;;;;;;10.10;100.00;101739.06;5025741;28;20294;-73
2021/09/02 00:36:00;;;;;;;12.13;7.70;;;;;;;9.97;100.00;101737.41;5020788;28;20200;-73
2021/09/02 00:38:27;;;;;;;10.63;7.20;;;;;;;9.95;100.00;101736.53;5028387;28;20214;-73
2021/09/02 00:40:54;;;;;;;12.03;7.37;;;;;;;9.90;100.00;101739.16;5026622;28;20269;-73
2021/09/02 00:43:20;;;;;;;14.30;7.97;;;;;;;9.88;100.00;101740.91;5025151;28;20226;-73
2021/09/02 00:45:47;;;;;;;10.87;7.70;;;;;;;9.86;100.00;101750.47;5026544;28;20306;-73
2021/09/02 00:48:13;;;;;;;10.60;7.77;;;;;;;9.86;100.00;101734.84;5026485;28;20585;-74
2021/09/02 00:50:40;;;;;;;10.73;7.60;;;;;;;9.90;100.00;101733.94;5027483;28;20214;-74
2021/09/02 00:53:06;;;;;;;11.73;7.87;;;;;;;9.81;100.00;101741.81;5028349;28;20202;-73
2021/09/02 00:55:34;;;;;;;10.73;7.13;;;;;;;9.85;100.00;101733.16;5024514;28;20215;-72
2021/09/02 00:58:01;;;;;;;10.57;7.47;;;;;;;9.75;100.00;101740.13;5027584;28;20223;-73
2021/09/02 01:00:28;;;;;;;11.40;7.87;;;;;;;9.76;100.00;101741.88;5028600;28;20226;-74
2021/09/02 01:02:55;;;;;;;11.80;7.83;;;;;;;9.77;100.00;101743.59;5021941;28;20224;-73
2021/09/02 01:05:22;;;;;;;11.50;7.97;;;;;;;9.72;100.00;101744.47;5024899;28;20230;-72
2021/09/02 01:07:49;;;;;;;11.77;8.07;;;;;;;9.74;100.00;101743.59;5027774;28;20297;-73
2021/09/02 01:10:16;;;;;;;10.43;7.97;;;;;;;9.66;100.00;101735.81;5028283;28;20200;-73
2021/09/02 01:12:46;;;;;;;10.80;7.77;;;;;;;9.67;100.00;101736.69;5027248;28;20315;-72
2021/09/02 01:15:15;;;;;;;10.50;7.57;;;;;;;9.59;100.00;101733.25;5028226;28;20195;-73
2021/09/02 01:17:43;;;;;;;9.30;6.80;;;;;;;9.63;100.00;101734.97;5024802;28;20257;-72
2021/09/02 01:20:10;;;;;;;12.20;8.47;;;;;;;9.66;100.00;101733.22;5013985;28;20211;-73
2021/09/02 01:22:38;;;;;;;11.80;8.27;;;;;;;9.63;100.00;101725.41;5027122;28;20315;-74
2021/09/02 01:25:08;;;;;;;10.83;7.30;;;;;;;9.69;100.00;101723.66;5027339;28;20448;-73
2021/09/02 01:27:35;;;;;;;11.07;7.33;;;;;;;9.73;100.00;101723.66;5024925;28;20606;-74
2021/09/02 01:30:03;;;;;;;10.63;7.73;;;;;;;9.76;100.00;101720.16;5027731;28;20208;-72
2021/09/02 01:32:31;;;;;;;10.30;7.27;;;;;;;9.87;100.00;101723.56;5027017;28;20207;-73
2021/09/02 01:34:59;;;;;;;10.43;7.13;;;;;;;9.86;100.00;101722.69;5027254;28;20203;-74
2021/09/02 01:37:26;;;;;;;10.40;7.07;;;;;;;9.87;100.00;101726.19;5023864;28;20311;-73
2021/09/02 01:39:54;;;;;;;9.20;6.97;;;;;;;9.85;100.00;101720.13;5025403;28;20560;-74
2021/09/02 01:42:21;;;;;;;11.80;8.40;;;;;;;9.82;100.00;101720.13;5025767;28;20208;-73
2021/09/02 01:44:48;;;;;;;12.60;8.07;;;;;;;9.81;100.00;101727.06;5025290;28;20619;-74
2021/09/02 01:47:23;;;;;;;10.87;7.47;;;;;;;9.81;100.00;101727.06;5026892;28;20215;-74
2021/09/02 01:49:50;;;;;;;11.23;7.43;;;;;;;9.94;100.00;101717.44;5025277;28;20708;-73
2021/09/02 01:52:17;;;;;;;11.07;8.23;;;;;;;10.01;100.00;101719.13;5026713;28;20561;-74
2021/09/02 01:54:43;;;;;;;11.73;8.33;;;;;;;10.08;100.00;101722.56;5026496;28;20215;-73
2021/09/02 01:57:10;;;;;;;12.07;8.07;;;;;;;10.07;100.00;101722.59;5024618;28;20231;-74
2021/09/02 01:59:38;;;;;;;12.33;8.87;;;;;;;10.19;100.00;101718.16;5020795;28;20196;-73
2021/09/02 02:02:05;;;;;;;11.60;8.63;;;;;;;10.14;100.00;101719.06;5024495;28;20571;-74
2021/09/02 02:04:32;;;;;;;13.97;8.30;;;;;;;10.12;100.00;101720.81;5027416;28;20251;-73
2021/09/02 02:06:59;;;;;;;14.33;8.63;;;;;;;10.15;100.00;101718.16;5026534;28;20223;-73
2021/09/02 02:09:25;;;;;;;13.83;8.90;;;;;;;10.13;100.00;101720.81;5030064;28;20576;-73
2021/09/02 02:11:51;;;;;;;12.13;8.63;;;;;;;10.11;100.00;101719.06;5026886;28;20204;-74
2021/09/02 02:14:18;;;;;;;10.57;8.07;;;;;;;10.07;100.00;101723.44;5028659;28;20210;-74
2021/09/02 02:16:46;;;;;;;12.87;8.13;;;;;;;10.16;100.00;101730.34;5025980;28;20224;-74
2021/09/02 02:19:12;;;;;;;11.93;8.00;;;;;;;10.04;100.00;101720.84;5022577;28;20303;-73
2021/09/02 02:21:39;;;;;;;13.03;7.80;;;;;;;9.96;100.00;101720.06;5026175;28;20248;-73
2021/09/02 02:24:06;;;;;;;9.70;7.53;;;;;;;10.01;100.00;101726.09;5022156;28;20262;-73
2021/09/02 02:26:32;;;;;;;10.47;7.27;;;;;;;10.00;100.00;101721.75;5022374;28;20661;-73
2021/09/02 02:28:59;;;;;;;10.63;7.30;;;;;;;9.99;100.00;101728.72;5025682;28;20223;-73
2021/09/02 02:31:25;;;;;;;10.27;7.47;;;;;;;10.04;100.00;101716.53;5015367;28;20204;-73
2021/09/02 02:33:53;;;;;;;10.07;7.40;;;;;;;10.04;100.00;101726.94;5022809;28;20204;-73
2021/09/02 02:36:19;;;;;;;10.77;7.80;;;;;;;10.02;100.00;101720.84;5024895;28;20231;-73
2021/09/02 02:38:46;;;;;;;11.60;8.37;;;;;;;10.02;100.00;101720.84;5024027;28;20353;-72
2021/09/02 02:41:12;;;;;;;11.77;8.10;;;;;;;9.95;100.00;101726.13;5024911;28;20596;-72
2021/09/02 02:43:39;;;;;;;9.90;7.83;;;;;;;10.08;100.00;101717.38;5017408;28;20290;-73
2021/09/02 02:46:05;;;;;;;12.07;7.83;;;;;;;9.92;100.00;101715.72;5021837;28;20210;-73
2021/09/02 02:48:32;;;;;;;10.10;7.97;;;;;;;9.90;100.00;101718.31;5025371;28;20211;-72
2021/09/02 02:51:00;;;;;;;9.80;7.13;;;;;;;9.89;100.00;101716.59;5024972;28;20298;-73
2021/09/02 02:53:26;;;;;;;11.07;7.43;;;;;;;9.86;100.00;101714.00;5015739;28;20210;-73
2021/09/02 02:55:53;;;;;;;11.57;7.70;;;;;;;9.78;100.00;101721.00;5025922;28;20210;-73
2021/09/02 02:58:19;;;;;;;12.27;8.13;;;;;;;9.77;100.00;101719.28;5022262;28;20774;-73
2021/09/02 03:00:46;;;;;;;9.70;7.50;;;;;;;9.77;100.00;101706.25;5025017;28;20200;-73
2021/09/02 03:03:12;;;;;;;11.17;8.07;;;;;;;9.70;100.00;101710.63;5025636;28;20226;-73
2021/09/02 03:05:38;;;;;;;10.63;7.73;;;;;;;9.64;100.00;101711.53;5026502;28;20214;-73
2021/09/02 03:08:07;;;;;;;11.93;8.40;;;;;;;9.56;100.00;101710.69;5021322;28;20518;-72
2021/09/02 03:10:33;;;;;;;15.33;8.43;;;;;;;9.54;100.00;101714.19;5022846;28;20195;-74
2021/09/02 03:13:00;;;;;;;11.87;8.03;;;;;;;9.53;100.00;101713.31;5021459;28;20207;-73
2021/09/02 03:15:27;;;;;;;12.57;8.60;;;;;;;9.43;100.00;101709.03;5014471;28;20583;-73
2021/09/02 03:17:54;;;;;;;10.03;7.53;;;;;;;9.56;100.00;101720.25;5024733;28;20230;-72
2021/09/02 03:20:20;;;;;;;9.63;7.37;;;;;;;9.58;100.00;101721.09;5021121;28;20687;-73
2021/09/02 03:22:46;;;;;;;10.83;7.63;;;;;;;9.57;100.00;101719.34;5028359;28;20210;-73
2021/09/02 03:25:14;;;;;;;10.30;7.80;;;;;;;9.56;100.00;101717.66;5028359;28;20204;-73
2021/09/02 03:27:41;;;;;;;9.53;7.80;;;;;;;9.50;100.00;101717.66;5028140;28;20231;-73
2021/09/02 03:30:10;;;;;;;10.30;7.53;;;;;;;9.37;100.00;101722.06;5029311;28;20217;-72
2021/09/02 03:32:36;;;;;;;11.47;7.73;;;;;;;9.35;100.00;101724.66;5029484;28;20206;-73
2021/09/02 03:35:04;;;;;;;9.83;7.30;;;;;;;9.34;100.00;101724.66;5027883;28;20210;-73
2021/09/02 03:37:30;;;;;;;9.53;7.03;;;;;;;9.28;100.00;101718.59;5023372;28;20313;-73
2021/09/02 03:39:57;;;;;;;10.87;6.97;;;;;;;9.32;100.00;101729.00;5026585;28;20201;-72
2021/09/02 03:42:24;;;;;;;11.93;7.43;;;;;;;9.34;100.00;101729.88;5027577;28;20210;-73
2021/09/02 03:44:51;;;;;;;10.80;7.23;;;;;;;9.19;100.00;101731.66;5029483;28;20200;-73
2021/09/02 03:47:17;;;;;;;12.30;7.03;;;;;;;9.18;100.00;101727.34;5029486;28;20245;-73
2021/09/02 03:49:44;;;;;;;11.93;7.57;;;;;;;9.16;100.00;101728.19;5027430;28;20334;-73
2021/09/02 03:52:10;;;;;;;9.97;7.20;;;;;;;9.12;100.00;101727.34;5024980;28;20202;-73
2021/09/02 03:54:37;;;;;;;11.17;7.80;;;;;;;9.23;100.00;101729.91;5029687;28;20214;-72
2021/09/02 03:57:03;;;;;;;10.07;7.93;;;;;;;9.24;100.00;101726.44;5027415;28;20239;-73
2021/09/02 03:59:31;;;;;;;15.63;8.20;;;;;;;9.21;100.00;101723.84;5030025;28;20210;-72
2021/09/02 04:01:57;;;;;;;11.07;8.30;;;;;;;9.38;100.00;101726.41;5028435;28;20294;-72
2021/09/02 04:04:24;;;;;;;12.93;7.80;;;;;;;9.32;100.00;101721.22;5026880;28;20306;-73
2021/09/02 04:06:50;;;;;;;12.73;9.20;;;;;;;9.38;100.00;101721.19;5027162;28;20217;-73
2021/09/02 04:09:18;;;;;;;9.77;7.80;;;;;;;9.55;100.00;101719.41;5027556;28;20227;-73
2021/09/02 04:11:44;;;;;;;13.03;8.27;;;;;;;9.56;100.00;101718.50;5028753;28;20272;-73
2021/09/02 04:14:11;;;;;;;11.30;8.53;;;;;;;9.51;100.00;101714.19;5027722;28;20656;-73
2021/09/02 04:16:38;;;;;;;14.33;9.23;;;;;;;9.48;100.00;101733.31;5028140;28;20230;-74
2021/09/02 04:19:05;;;;;;;13.00;9.43;;;;;;;9.49;100.00;101735.03;5029078;28;20202;-73
2021/09/02 04:21:31;;;;;;;16.00;10.03;;;;;;;9.52;100.00;101735.03;5024617;28;20234;-73
2021/09/02 04:23:58;;;;;;;14.67;9.60;;;;;;;9.48;100.00;101735.91;5025488;28;20199;-73
2021/09/02 04:26:24;;;;;;;18.20;9.97;;;;;;;9.42;100.00;101728.97;5022436;28;20240;-73
2021/09/02 04:28:51;;;;;;;13.63;9.20;;;;;;;9.54;100.00;101733.28;5026302;28;20841;-72
2021/09/02 04:31:17;;;;;;;13.73;9.57;;;;;;;9.61;100.00;101732.38;5030461;28;20206;-73
2021/09/02 04:33:45;;;;;;;17.10;9.07;;;;;;;9.48;100.00;101735.91;5022205;28;20546;-73
2021/09/02 04:36:11;;;;;;;15.03;9.30;;;;;;;9.42;100.00;101734.19;5028069;28;20501;-73
2021/09/02 04:38:38;;;;;;;16.80;9.50;;;;;;;9.53;100.00;101738.47;5026459;28;20233;-73
2021/09/02 04:41:04;;;;;;;14.90;9.93;;;;;;;9.45;100.00;101734.19;5025578;28;20372;-73
2021/09/02 04:43:31;;;;;;;13.73;10.00;;;;;;;9.46;100.00;101733.31;5027855;28;20204;-72
2021/09/02 04:45:57;;;;;;;14.20;9.93;;;;;;;9.46;100.00;101737.63;5024654;28;20212;-73
2021/09/02 04:48:24;;;;;;;15.17;8.93;;;;;;;9.52;100.00;101739.38;5027514;28;20209;-73
2021/09/02 04:50:52;;;;;;;15.50;10.20;;;;;;;9.55;100.00;101737.63;5022620;28;20323;-76
2021/09/02 04:53:19;;;;;;;17.13;10.07;;;;;;;9.61;100.00;101737.56;5021919;28;20303;-73
2021/09/02 04:55:46;;;;;;;16.90;10.70;;;;;;;9.57;100.00;101735.88;5025584;28;20230;-73
2021/09/02 04:58:14;;;;;;;19.07;10.87;;;;;;;9.55;100.00;101732.41;5029225;28;20242;-72
2021/09/02 05:00:42;;;;;;;14.07;8.73;;;;;;;9.53;100.00;101739.34;5023875;28;20205;-73
2021/09/02 05:03:09;;;;;;;16.27;10.77;;;;;;;9.69;100.00;101745.34;5023317;28;20218;-72
2021/09/02 05:05:35;;;;;;;17.17;10.40;;;;;;;9.73;100.00;101754.03;5026638;28;20221;-73
2021/09/02 05:08:04;;;;;;;16.53;10.50;;;;;;;9.70;100.00;101757.50;5025538;28;20226;-74
2021/09/02 05:10:30;;;;;;;19.13;10.87;;;;;;;9.74;100.00;101750.53;5027148;28;20317;-73
2021/09/02 05:12:57;;;;;;;20.60;11.50;;;;;;;9.74;100.00;101755.75;5026697;28;20213;-74
2021/09/02 05:15:24;;;;;;;17.30;11.43;;;;;;;9.88;100.00;101756.53;5020095;28;20290;-74
2021/09/02 05:17:50;;;;;;;18.13;11.47;;;;;;;9.80;100.00;101753.13;5023016;28;20218;-73
2021/09/02 05:20:17;;;;;;;17.70;11.40;;;;;;;9.86;100.00;101755.69;5026383;28;20626;-73
2021/09/02 05:22:44;;;;;;;17.30;10.73;;;;;;;9.91;100.00;101758.28;5024798;28;20218;-74
2021/09/02 05:25:13;;;;;;;19.00;11.17;;;;;;;9.94;100.00;101761.75;5017016;28;20211;-73
2021/09/02 05:27:39;;;;;;;22.93;12.10;;;;;;;10.03;100.00;101769.50;5022801;28;20235;-73
2021/09/02 05:30:10;;;;;;;22.30;11.80;;;;;;;10.15;100.00;101770.28;5028581;28;20218;-73
2021/09/02 05:32:36;;;;;;;23.03;13.43;;;;;;;10.23;100.00;101764.16;5025674;28;20294;-73
2021/09/02 05:35:03;;;;;;;22.67;13.00;;;;;;;10.30;100.00;101770.19;5023977;28;20299;-73
2021/09/02 05:37:30;;;;;;;22.63;12.87;;;;;;;10.46;100.00;101767.53;5026162;28;20313;-74
2021/09/02 05:39:56;;;;;;;20.70;13.37;;;;;;;10.61;100.00;101772.63;5024609;28;20202;-73
2021/09/02 05:42:24;;;;;;;27.73;14.03;;;;;;;10.69;100.00;101775.16;5023451;28;20218;-73
2021/09/02 05:44:50;;;;;;;27.30;15.37;;;;;;;10.81;100.00;101772.44;5017848;28;20552;-73
2021/09/02 05:47:17;;;;;;;27.87;15.03;;;;;;;10.92;100.00;101770.63;5021804;28;20238;-74
2021/09/02 05:49:43;;;;;;;30.03;15.13;;;;;;;11.01;100.00;101772.28;5023913;28;20246;-73
2021/09/02 05:52:10;;;;;;;28.13;15.33;;;;;;;11.12;100.00;101769.56;5020157;28;20203;-71
2021/09/02 05:54:36;;;;;;;28.57;16.03;;;;;;;11.22;100.00;101773.81;5023190;28;20215;-72
2021/09/02 05:57:03;;;;;;;27.23;16.27;;;;;;;11.29;100.00;101775.47;5022262;28;20231;-72
2021/09/02 05:59:31;;;;;;;28.60;15.97;;;;;;;11.41;100.00;101781.44;5019419;28;20291;-72
2021/09/02 06:01:57;;;;;;;29.27;16.37;;;;;;;11.56;100.00;101787.34;5021434;28;20624;-73
2021/09/02 06:04:23;;;;;;;28.60;16.27;;;;;;;11.68;100.00;101785.44;5023651;28;20322;-72
2021/09/02 06:06:50;;;;;;;34.07;18.10;;;;;;;11.75;100.00;101781.91;5021002;28;20232;-74
2021/09/02 06:09:16;;;;;;;29.67;16.73;;;;;;;11.85;100.00;101787.88;5024505;28;20233;-75
2021/09/02 06:11:44;;;;;;;30.23;16.67;;;;;;;11.97;100.00;101797.34;5024519;28;20210;-72
2021/09/02 06:14:10;;;;;;;30.97;16.83;;;;;;;12.05;100.00;101792.88;5025115;28;20564;-73
2021/09/02 06:16:38;;;;;;;31.70;17.27;;;;;;;12.11;100.00;101795.38;5025484;28;20320;-73
2021/09/02 06:19:05;;;;;;;31.67;17.60;;;;;;;12.21;100.00;101788.28;5024128;28;20212;-72
2021/09/02 06:21:31;;;;;;;27.97;16.90;;;;;;;12.35;100.00;101795.91;5023326;28;20215;-72
2021/09/02 06:23:57;;;;;;;29.70;17.37;;;;;;;12.41;100.00;101795.84;5021038;28;20213;-73
2021/09/02 06:26:24;;;;;;;31.47;18.17;;;;;;;12.54;100.00;101799.13;5024477;28;20301;-73
2021/09/02 06:28:50;;;;;;;29.77;18.27;;;;;;;12.61;100.00;101795.50;5020620;28;20206;-72
2021/09/02 06:31:17;;;;;;;32.80;17.97;;;;;;;12.64;100.00;101803.31;5025153;28;20210;-72
2021/09/02 06:33:44;;;;;;;32.30;17.67;;;;;;;12.73;100.00;101802.31;5020317;28;20210;-72
2021/09/02 06:36:11;;;;;;;26.10;17.20;;;;;;;12.88;100.00;101796.81;5024848;28;20198;-72
2021/09/02 06:38:37;;;;;;;27.10;17.00;;;;;;;12.92;100.00;101795.03;5021177;28;20207;-73
2021/09/02 06:41:04;;;;;;;27.67;16.60;;;;;;;13.05;100.00;101796.50;5020268;28;20200;-72
2021/09/02 06:43:30;;;;;;;28.23;16.90;;;;;;;13.19;100.00;101794.53;5025617;28;20196;-72
2021/09/02 06:45:56;;;;;;;26.77;16.10;;;;;;;13.34;100.00;101797.78;5022733;28;20210;-73
2021/09/02 06:48:23;;;;;;;26.03;15.83;;;;;;;13.46;100.00;101802.78;5025896;28;20738;-73
2021/09/02 06:50:51;;;;;;;21.77;13.70;;;;;;;13.49;100.00;101805.34;5023404;28;20224;-72
2021/09/02 06:53:17;;;;;;;20.80;13.03;;;;;;;13.62;100.00;101804.19;5023991;28;20196;-72
2021/09/02 06:55:43;;;;;;;19.63;13.10;;;;;;;13.71;100.00;101813.63;5028549;28;20207;-73
2021/09/02 06:58:10;;;;;;;18.73;12.00;;;;;;;13.81;100.00;101820.41;5021858;28;20216;-73
2021/09/02 07:00:36;;;;;;;18.10;12.03;;;;;;;13.84;100.00;101816.84;5029005;28;20211;-73
2021/09/02 07:03:03;;;;;;;14.17;10.50;;;;;;;13.93;100.00;101815.81;5028791;28;20218;-73
2021/09/02 07:05:29;;;;;;;17.17;10.97;;;;;;;13.93;100.00;101831.53;5028245;28;20606;-72
2021/09/02 07:07:57;;;;;;;11.87;9.60;;;;;;;14.01;100.00;101822.59;5023835;28;20230;-73
2021/09/02 07:10:23;;;;;;;14.27;9.30;;;;;;;14.15;100.00;101822.31;5025656;28;20225;-72
2021/09/02 07:12:50;;;;;;;13.87;9.57;;;;;;;14.18;100.00;101826.66;5026914;28;20209;-73
2021/09/02 07:15:16;;;;;;;12.10;9.27;;;;;;;14.26;100.00;101831.72;5028323;28;20208;-73
2021/09/02 07:17:43;;;;;;;12.80;9.33;;;;;;;14.38;100.00;101834.06;5027694;28;20648;-72
2021/09/02 07:20:11;;;;;;;11.67;8.57;;;;;;;14.51;100.00;101827.63;5028308;28;20207;-72
2021/09/02 07:22:37;;;;;;;11.80;8.47;;;;;;;14.56;100.00;101833.66;5023429;28;20211;-73
2021/09/02 07:25:06;;;;;;;10.53;7.63;;;;;;;14.70;100.00;101835.94;5025907;28;20538;-73
2021/09/02 07:27:33;;;;;;;12.27;8.37;;;;;;;14.87;100.00;101834.69;5027490;28;20227;-73
2021/09/02 07:29:59;;;;;;;11.07;8.10;;;;;;;14.99;100.00;101836.16;5026833;28;20218;-73
2021/09/02 07:32:26;;;;;;;9.83;8.03;;;;;;;15.04;100.00;101842.13;5028649;28;20215;-73
2021/09/02 07:34:53;;;;;;;11.10;7.77;;;;;;;15.03;100.00;101848.31;5026267;28;20562;-73
2021/09/02 07:37:20;;;;;;;11.30;7.93;;;;;;;15.05;100.00;101851.75;5027861;28;20231;-73
2021/09/02 07:39:47;;;;;;;12.33;7.73;;;;;;;15.13;100.00;101852.41;5021378;28;20607;-73
2021/09/02 07:42:14;;;;;;;10.93;6.83;;;;;;;15.33;100.00;101857.16;5025721;28;20819;-72
2021/09/02 07:44:42;;;;;;;10.60;7.63;;;;;;;15.42;100.00;101854.25;5025024;28;20208;-72
2021/09/02 07:47:09;;;;;;;10.90;7.40;;;;;;;15.56;100.00;101853.03;5026666;28;20247;-73
2021/09/02 07:49:36;;;;;;;10.10;7.23;;;;;;;15.61;100.00;101859.03;5025685;28;20294;-73
2021/09/02 07:52:03;;;;;;;9.77;7.27;;;;;;;15.75;100.00;101858.69;5022973;28;20216;-73
2021/09/02 07:54:30;;;;;;;11.43;7.63;;;;;;;15.83;100.00;101856.69;5027288;28;20647;-73
2021/09/02 07:56:56;;;;;;;9.70;7.10;;;;;;;15.90;100.00;101868.78;5024492;28;20232;-73
2021/09/02 07:59:24;;;;;;;9.23;6.60;;;;;;;16.03;100.00;101858.75;5027840;28;20214;-72
2021/09/02 08:01:50;;;;;;;8.47;6.17;;;;;;;16.28;100.00;101861.50;5023513;28;20204;-73
2021/09/02 08:04:16;;;;;;;9.33;6.30;;;;;;;16.52;100.00;101862.53;5025505;28;20218;-73
2021/09/02 08:06:43;;;;;;;11.73;6.90;;;;;;;16.68;100.00;101873.44;5022720;28;20525;-73
2021/09/02 08:09:09;;;;;;;12.10;6.90;;;;;;;16.75;99.92;101869.69;5025514;28;20618;-72
2021/09/02 08:11:36;;;;;;;7.73;5.80;;;;;;;16.83;100.00;101870.34;5026777;28;20228;-72
2021/09/02 08:14:02;;;;;;;9.23;5.70;;;;;;;16.93;98.89;101876.16;5022114;28;20207;-73
2021/09/02 08:16:31;;;;;;;8.93;5.90;;;;;;;17.01;99.48;101874.13;5025979;28;20591;-72
2021/09/02 08:18:58;;;;;;;8.17;5.80;;;;;;;16.95;97.10;101887.50;5023881;28;20714;-73
2021/09/02 08:21:25;;;;;;;7.03;5.57;;;;;;;17.10;98.73;101878.25;5026834;28;20234;-73
2021/09/02 08:23:52;;;;;;;12.93;6.30;;;;;;;17.27;96.51;101872.38;5025667;28;20211;-72
2021/09/02 08:26:18;;;;;;;8.87;6.30;;;;;;;17.38;97.70;101874.66;5026705;28;20597;-72
2021/09/02 08:28:45;;;;;;;7.80;6.13;;;;;;;17.50;97.70;101876.88;5023852;28;20200;-73
2021/09/02 08:31:11;;;;;;;9.90;6.27;;;;;;;17.46;97.03;101871.75;5018003;28;20219;-73
2021/09/02 08:33:39;;;;;;;8.97;6.10;;;;;;;17.63;96.90;101876.44;5025127;28;20200;-73
2021/09/02 08:36:05;;;;;;;10.87;6.43;;;;;;;17.82;97.07;101879.25;5024489;28;20351;-72
2021/09/02 08:38:32;;;;;;;8.33;6.33;;;;;;;17.90;94.78;101880.72;5024233;28;20717;-73
2021/09/02 08:40:59;;;;;;;9.47;6.33;;;;;;;17.95;95.16;101878.75;5020680;28;20211;-72
2021/09/02 08:43:25;;;;;;;9.53;5.93;;;;;;;18.10;95.42;101874.72;5025856;28;20200;-73
2021/09/02 08:45:52;;;;;;;7.10;6.03;;;;;;;18.02;90.54;101884.69;5023131;28;20203;-73
2021/09/02 08:48:19;;;;;;;8.67;6.40;;;;;;;17.98;92.76;101877.81;5024619;28;20715;-72
2021/09/02 08:50:47;;;;;;;11.67;6.20;;;;;;;18.11;94.39;101875.56;5021347;28;20211;-72
2021/09/02 08:53:13;;;;;;;10.53;6.53;;;;;;;18.06;93.41;101878.38;5024674;28;20794;-72
2021/09/02 08:55:39;;;;;;;9.20;6.90;;;;;;;18.05;91.92;101883.72;5025578;28;20226;-73
2021/09/02 08:58:06;;;;;;;8.80;6.17;;;;;;;17.89;93.06;101879.00;5023085;28;20654;-72
2021/09/02 09:00:32;;;;;;;8.13;5.60;;;;;;;17.97;90.73;101884.00;5026192;28;20695;-73
2021/09/02 09:03:01;;;;;;;8.30;5.80;;;;;;;18.01;91.52;101880.34;5020125;28;20684;-73
2021/09/02 09:05:31;;;;;;;8.60;6.00;;;;;;;17.99;91.69;101879.50;5024982;28;20223;-73
2021/09/02 09:08:00;;;;;;;9.47;6.23;;;;;;;18.00;91.80;101875.13;5022619;28;20262;-72
2021/09/02 09:10:28;;;;;;;10.37;5.93;;;;;;;18.03;87.26;101886.41;5025954;28;20212;-73
2021/09/02 09:12:57;;;;;;;8.60;5.77;;;;;;;18.11;88.57;101881.69;5022970;28;20306;-72
2021/09/02 09:15:26;;;;;;;9.37;6.20;;;;;;;18.29;88.60;101879.25;5024435;28;20199;-73
2021/09/02 09:17:54;;;;;;;7.60;5.00;;;;;;;18.37;86.61;101877.19;5023907;28;20286;-73
2021/09/02 09:20:22;;;;;;;6.57;5.20;;;;;;;18.48;86.21;101877.63;5024510;28;20196;-72
2021/09/02 09:22:50;;;;;;;9.43;5.50;;;;;;;18.47;86.40;101869.78;5020768;28;20286;-72
2021/09/02 09:25:18;;;;;;;6.07;5.43;;;;;;;18.49;87.62;101865.31;5023287;28;20274;-73
2021/09/02 09:27:50;;;;;;;9.63;5.43;;;;;;;18.60;85.40;101875.44;5024685;28;20231;-73
2021/09/02 09:30:18;;;;;;;9.23;4.90;;;;;;;18.71;85.67;101868.81;5022447;28;20224;-73
2021/09/02 09:32:48;;;;;;;5.93;4.60;;;;;;;18.80;84.76;101875.47;5022146;28;20232;-73
2021/09/02 09:35:17;;;;;;;6.47;5.20;;;;;;;18.92;85.35;101879.44;5024633;28;20207;-73
2021/09/02 09:37:45;;;;;;;8.57;5.43;;;;;;;18.96;84.78;101873.13;5027794;28;20680;-73
2021/09/02 09:40:24;;;;;;;7.50;4.97;;;;;;;18.96;84.42;101881.03;5020979;28;20288;-73
2021/09/02 09:42:59;;;;;;;6.83;5.00;;;;;;;19.03;84.33;101887.78;5020101;28;20200;-72
2021/09/02 09:45:43;;;;;;;7.10;4.83;;;;;;;19.04;83.10;101881.56;5015571;28;20208;-73
2021/09/02 09:48:29;;;;;;;6.77;4.70;;;;;;;19.04;83.02;101888.66;5023338;28;20254;-72
2021/09/02 09:51:11;;;;;;;8.67;4.43;;;;;;;19.02;82.82;101883.41;5020223;28;20226;-72
2021/09/02 09:53:39;;;;;;;5.53;3.90;;;;;;;19.04;79.89;101891.28;5019217;28;20216;-73
2021/09/02 09:56:07;;;;;;;5.90;3.87;;;;;;;19.09;80.47;101890.16;5022807;28;20582;-73
2021/09/02 09:58:35;;;;;;;5.53;3.57;;;;;;;19.13;78.76;101885.59;5024508;28;20207;-72
2021/09/02 10:01:03;;;;;;;4.63;3.87;;;;;;;19.23;79.87;101879.00;5022005;28;20200;-72
2021/09/02 10:03:30;;;;;;;6.07;3.97;;;;;;;19.34;78.21;101880.34;5023266;28;20203;-73
2021/09/02 10:06:02;;;;;;;6.20;4.07;;;;;;;19.44;80.84;101866.66;5024066;28;21024;-73
2021/09/02 10:08:32;;;;;;;5.43;3.70;;;;;;;19.59;79.90;101872.19;5023286;28;20589;-72
2021/09/02 10:10:59;;;;;;;6.13;3.50;;;;;;;19.73;79.71;101867.13;5022126;28;20234;-72
2021/09/02 10:13:27;;;;;;;4.83;3.70;;;;;;;19.77;77.13;101867.88;5022525;28;20322;-72
2021/09/02 10:15:54;;;;;;;5.63;3.40;;;;;;;19.85;75.93;101873.69;5023449;28;20232;-72
2021/09/02 10:18:20;;;;;;;4.80;3.67;;;;;;;19.94;75.98;101872.41;5021958;28;20227;-73
2021/09/02 10:20:48;;;;;;;3.97;3.17;;;;;;;19.93;75.09;101871.56;5015810;28;20204;-73
2021/09/02 10:23:25;;;;;;;6.27;3.70;;;;;;;20.07;74.75;101875.34;5021494;28;20202;-73
2021/09/02 10:25:52;;;;;;;5.47;3.50;;;;;;;20.22;74.32;101872.00;5022066;28;20211;-73
2021/09/02 10:28:25;;;;;;;5.90;4.30;;;;;;;20.27;73.73;101875.28;5018704;28;20211;-72
2021/09/02 10:30:55;;;;;;;8.27;4.33;;;;;;;20.39;74.18;101885.28;5025522;28;20693;-72
2021/09/02 10:33:41;;;;;;;6.87;4.07;;;;;;;20.51;74.33;101878.56;5024731;28;20195;-72
2021/09/02 10:36:38;;;;;;;8.60;4.30;;;;;;;20.70;74.31;101880.34;5024494;28;20215;-72
2021/09/02 10:39:04;;;;;;;5.40;4.27;;;;;;;20.88;74.89;101883.88;5014624;28;20233;-72
2021/09/02 10:41:47;;;;;;;7.37;5.07;;;;;;;20.84;74.32;101877.84;5022825;28;20199;-72
2021/09/02 10:44:15;;;;;;;7.47;5.00;;;;;;;20.89;74.18;101880.28;5043014;28;20261;-72
2021/09/02 10:46:44;;;;;;;5.47;4.40;;;;;;;20.95;74.60;101872.91;5028173;28;20223;-72
2021/09/02 10:49:22;;;;;;;7.57;5.10;;;;;;;20.89;72.38;101875.84;5022401;28;20273;-72
2021/09/02 10:51:50;;;;;;;5.97;4.60;;;;;;;20.92;73.27;101873.03;5025801;28;20703;-72
2021/09/02 10:54:22;;;;;;;7.07;4.53;;;;;;;21.25;73.08;101863.44;5024649;28;20204;-72
2021/09/02 10:56:55;;;;;;;7.80;4.70;;;;;;;21.50;73.26;101866.56;5026790;28;20696;-72
2021/09/02 10:59:47;;;;;;;6.67;5.00;;;;;;;21.58;74.13;101871.47;5024615;28;20676;-72
2021/09/02 11:02:41;;;;;;;5.53;4.50;;;;;;;21.29;69.67;101872.97;5012729;28;20204;-72
2021/09/02 11:05:10;;;;;;;6.23;4.40;;;;;;;21.40;70.24;101864.47;5027545;28;20277;-72
2021/09/02 11:07:38;;;;;;;5.60;4.10;;;;;;;21.42;70.58;101857.28;5025523;28;20235;-72
2021/09/02 11:10:11;;;;;;;6.87;4.17;;;;;;;21.30;70.20;101864.94;5025262;28;20200;-72
2021/09/02 11:12:37;;;;;;;6.30;3.83;;;;;;;21.23;70.20;101867.97;5025960;28;20230;-72
2021/09/02 11:15:05;;;;;;;7.35;3.67;;;;;;;21.14;69.63;101862.22;5027013;28;20192;-72
2021/09/02 11:17:31;;;;;;;5.65;3.90;;;;;;;21.11;69.81;101856.22;5025430;28;20223;-72